Time;durP1;ratioP1;P1;durP2;ratioP2;P2;SDS_P1;SDS_P2;PMS_P1;PMS_P2;Temp;Humidity;BMP_temperature;BMP_pressure;BME280_temperature;BME280_humidity;BME280_pressure;Samples;Min_cycle;Max_cycle;Signal;HPM_P1;HPM_P2
2021/12/03 00:00:13;;;;;;;7.30;5.60;;;0.60;99.90;;;;;;5098727;28;20231;-69
2021/12/03 00:02:41;;;;;;;8.48;6.53;;;0.70;99.90;;;;;;5098860;28;20879;-69
2021/12/03 00:05:10;;;;;;;8.40;5.65;;;0.70;99.90;;;;;;5098790;28;20208;-69
2021/12/03 00:07:41;;;;;;;11.18;5.07;;;0.70;99.90;;;;;;5098588;28;20798;-67
2021/12/03 00:10:10;;;;;;;6.47;4.85;;;0.80;99.90;;;;;;5098684;28;20253;-69
2021/12/03 00:12:39;;;;;;;7.72;5.32;;;1.00;99.90;;;;;;5099228;28;20806;-68
2021/12/03 00:15:09;;;;;;;5.28;4.78;;;1.20;99.90;;;;;;5099364;28;20718;-68
2021/12/03 00:17:37;;;;;;;7.05;3.92;;;1.20;99.90;;;;;;5102849;28;20198;-68
2021/12/03 00:20:08;;;;;;;4.45;4.05;;;1.10;99.90;;;;;;5102702;28;20243;-69
2021/12/03 00:22:36;;;;;;;5.20;4.18;;;1.00;99.90;;;;;;5102736;28;20199;-67
2021/12/03 00:25:06;;;;;;;6.65;5.00;;;1.10;99.90;;;;;;5102343;28;20883;-68
2021/12/03 00:30:04;;;;;;;5.07;3.95;;;1.10;99.90;;;;;;5101183;28;20280;-69
2021/12/03 00:32:32;;;;;;;7.35;5.28;;;1.10;99.90;;;;;;5103001;28;20706;-68
2021/12/03 00:35:00;;;;;;;9.70;4.90;;;1.10;99.90;;;;;;5102526;28;20310;-68
2021/12/03 00:37:28;;;;;;;8.27;6.10;;;1.00;99.90;;;;;;5102501;28;20348;-68
2021/12/03 00:39:56;;;;;;;6.75;4.90;;;1.00;99.90;;;;;;5102033;28;20255;-68
2021/12/03 00:42:27;;;;;;;6.97;4.93;;;1.00;99.90;;;;;;5101711;28;20291;-68
2021/12/03 00:44:56;;;;;;;9.48;5.47;;;0.90;99.90;;;;;;5101743;28;20215;-67
2021/12/03 00:47:25;;;;;;;6.03;4.47;;;0.90;99.90;;;;;;5103173;28;20245;-68
2021/12/03 00:49:53;;;;;;;5.35;4.95;;;0.80;99.90;;;;;;5101576;27;20931;-68
2021/12/03 00:52:20;;;;;;;6.75;4.38;;;0.80;99.90;;;;;;5102149;28;20294;-69
2021/12/03 00:54:49;;;;;;;6.43;4.75;;;0.80;99.90;;;;;;5100583;28;20224;-69
2021/12/03 00:57:17;;;;;;;10.70;4.90;;;0.80;99.90;;;;;;5101282;28;20275;-68
2021/12/03 00:59:46;;;;;;;8.55;4.80;;;0.90;99.90;;;;;;5101505;28;20497;-68
2021/12/03 01:02:14;;;;;;;6.93;5.13;;;0.80;99.90;;;;;;5099959;27;20214;-69
2021/12/03 01:04:42;;;;;;;6.40;4.43;;;0.80;99.90;;;;;;5101919;28;20517;-69
2021/12/03 01:07:10;;;;;;;3.63;3.35;;;0.70;99.90;;;;;;5103164;28;20233;-69
2021/12/03 01:09:38;;;;;;;5.20;3.60;;;0.70;99.90;;;;;;5124305;28;20468;-68
2021/12/03 01:12:07;;;;;;;5.13;4.53;;;0.70;99.90;;;;;;4873439;27;5001369;-69
2021/12/03 01:14:36;;;;;;;4.40;3.25;;;0.70;99.90;;;;;;5041081;28;20257;-68
2021/12/03 01:17:06;;;;;;;4.25;3.40;;;0.70;99.90;;;;;;5040704;28;20296;-69
2021/12/03 01:19:34;;;;;;;3.65;3.35;;;0.70;99.90;;;;;;5040651;28;20495;-67
2021/12/03 01:22:02;;;;;;;8.77;3.13;;;0.70;99.90;;;;;;5040566;28;20194;-68
2021/12/03 01:24:31;;;;;;;5.50;3.28;;;0.70;99.90;;;;;;5040523;28;20237;-67
2021/12/03 01:26:59;;;;;;;3.08;2.65;;;0.70;99.90;;;;;;5040413;28;20252;-70
2021/12/03 01:29:27;;;;;;;3.30;3.00;;;0.80;99.90;;;;;;5040712;28;20222;-66
2021/12/03 01:31:56;;;;;;;2.97;2.35;;;0.80;99.90;;;;;;5041181;28;20718;-68
2021/12/03 01:34:26;;;;;;;3.08;2.72;;;0.80;99.90;;;;;;5039549;28;20219;-70
2021/12/03 01:36:54;;;;;;;6.60;2.95;;;0.90;99.90;;;;;;5040123;28;20286;-69
2021/12/03 01:39:22;;;;;;;4.32;2.67;;;0.90;99.90;;;;;;5039869;28;20249;-66
2021/12/03 01:41:50;;;;;;;5.88;2.92;;;0.90;99.90;;;;;;5040512;28;20288;-70
2021/12/03 01:44:18;;;;;;;4.70;3.10;;;1.00;99.90;;;;;;5039538;28;20229;-71
2021/12/03 01:46:46;;;;;;;5.40;3.72;;;1.00;99.90;;;;;;5040155;28;20897;-72
2021/12/03 01:49:15;;;;;;;6.10;2.85;;;1.00;99.90;;;;;;5039488;28;20233;-71
2021/12/03 01:51:45;;;;;;;7.03;4.47;;;1.00;99.90;;;;;;5039978;28;20300;-73
2021/12/03 01:54:13;;;;;;;6.57;5.97;;;1.00;99.90;;;;;;5039487;28;20227;-72
2021/12/03 01:56:41;;;;;;;6.38;3.42;;;1.00;99.90;;;;;;5039433;28;20823;-70
2021/12/03 01:59:10;;;;;;;3.45;3.15;;;1.00;99.90;;;;;;5039680;28;20304;-71
2021/12/03 02:01:38;;;;;;;4.28;3.60;;;1.00;99.90;;;;;;5042842;28;20228;-70
2021/12/03 02:04:07;;;;;;;6.25;4.15;;;1.00;99.90;;;;;;5039747;28;20202;-71
2021/12/03 02:06:36;;;;;;;4.47;4.07;;;1.10;99.90;;;;;;5039885;28;20456;-71
2021/12/03 02:09:07;;;;;;;6.65;3.85;;;1.10;99.90;;;;;;5040138;28;20256;-71
2021/12/03 02:11:36;;;;;;;5.60;3.88;;;1.10;99.90;;;;;;5039963;28;20225;-69
2021/12/03 02:14:04;;;;;;;5.00;4.50;;;1.10;99.90;;;;;;5039426;28;20288;-69
2021/12/03 02:16:32;;;;;;;7.25;4.72;;;1.10;99.90;;;;;;5040173;28;20243;-69
2021/12/03 02:19:01;;;;;;;7.00;4.65;;;1.00;99.90;;;;;;5039464;28;20749;-69
2021/12/03 02:21:30;;;;;;;5.03;4.50;;;0.90;99.90;;;;;;5046656;28;20261;-69
2021/12/03 02:23:58;;;;;;;7.30;4.68;;;0.90;99.90;;;;;;5053751;28;20255;-69
2021/12/03 02:26:25;;;;;;;5.50;4.50;;;0.90;99.90;;;;;;5042288;28;20519;-69
2021/12/03 02:28:53;;;;;;;5.97;4.38;;;0.90;99.90;;;;;;5038962;28;20239;-69
2021/12/03 02:31:24;;;;;;;6.00;4.40;;;0.90;99.90;;;;;;5039061;28;20236;-70
2021/12/03 02:33:53;;;;;;;3.85;3.55;;;0.90;99.90;;;;;;5039629;28;20205;-69
2021/12/03 02:36:22;;;;;;;4.72;3.88;;;1.10;99.90;;;;;;5039098;28;20221;-69
2021/12/03 02:38:51;;;;;;;5.32;4.50;;;1.20;99.90;;;;;;5037772;28;20321;-68
2021/12/03 02:41:20;;;;;;;4.70;4.30;;;1.20;99.90;;;;;;5039248;28;20237;-69
2021/12/03 02:43:48;;;;;;;6.90;4.90;;;1.20;99.90;;;;;;5038723;28;20205;-68
2021/12/03 02:46:16;;;;;;;5.72;4.30;;;1.20;99.90;;;;;;5039057;28;20399;-68
2021/12/03 02:48:44;;;;;;;6.03;4.38;;;1.30;99.90;;;;;;5038338;28;20244;-69
2021/12/03 02:51:12;;;;;;;5.13;4.68;;;1.30;99.90;;;;;;5039226;28;20323;-68
2021/12/03 02:53:40;;;;;;;8.55;4.70;;;1.40;99.90;;;;;;5039636;28;20288;-68
2021/12/03 02:56:10;;;;;;;6.25;4.85;;;1.40;99.90;;;;;;5038840;28;20864;-69
2021/12/03 02:58:38;;;;;;;8.73;4.45;;;1.40;99.90;;;;;;5038778;28;20309;-68
2021/12/03 03:01:08;;;;;;;9.52;4.28;;;1.50;99.90;;;;;;5038565;28;20908;-67
2021/12/03 03:03:37;;;;;;;4.53;3.65;;;1.60;99.90;;;;;;5040384;28;20208;-67
2021/12/03 03:06:08;;;;;;;8.48;2.92;;;1.70;99.90;;;;;;5039955;28;20213;-68
2021/12/03 03:08:39;;;;;;;7.30;3.40;;;1.70;99.90;;;;;;5039083;28;20635;-68
2021/12/03 03:11:07;;;;;;;4.30;3.00;;;1.80;99.90;;;;;;5040621;28;20883;-68
2021/12/03 03:13:36;;;;;;;3.45;2.25;;;1.80;99.90;;;;;;5040515;28;20230;-67
2021/12/03 03:16:06;;;;;;;2.42;2.22;;;1.90;99.90;;;;;;5040748;28;20218;-67
2021/12/03 03:18:35;;;;;;;1.73;1.63;;;1.80;99.90;;;;;;5040493;28;20523;-66
2021/12/03 03:21:05;;;;;;;2.13;1.85;;;1.80;99.90;;;;;;5038025;28;20274;-66
2021/12/03 03:23:34;;;;;;;2.35;1.98;;;1.70;99.90;;;;;;5036086;28;20340;-66
2021/12/03 03:26:03;;;;;;;3.67;2.25;;;1.80;99.90;;;;;;5038010;28;20229;-67
2021/12/03 03:28:31;;;;;;;3.90;2.85;;;1.70;99.90;;;;;;5036945;28;20229;-66
2021/12/03 03:31:01;;;;;;;3.25;2.80;;;1.70;99.90;;;;;;5038241;28;20201;-65
2021/12/03 03:33:29;;;;;;;5.85;3.55;;;1.70;99.90;;;;;;5045094;28;20263;-68
2021/12/03 03:35:57;;;;;;;4.32;3.92;;;1.70;99.90;;;;;;5063519;28;20830;-68
2021/12/03 03:38:25;;;;;;;6.18;4.85;;;1.70;99.90;;;;;;5045246;28;20712;-67
2021/12/03 03:40:53;;;;;;;7.25;5.13;;;1.70;99.90;;;;;;5037580;28;20514;-68
2021/12/03 03:43:25;;;;;;;14.18;5.70;;;1.70;99.90;;;;;;5037201;28;20247;-68
2021/12/03 03:45:52;;;;;;;12.90;5.85;;;1.70;99.90;;;;;;5034945;28;20193;-69
2021/12/03 03:48:23;;;;;;;6.95;5.95;;;1.70;99.90;;;;;;5037035;28;20308;-68
2021/12/03 03:50:52;;;;;;;4.65;4.32;;;1.70;99.90;;;;;;5039187;28;20215;-68
2021/12/03 03:53:20;;;;;;;7.80;5.40;;;1.70;99.90;;;;;;5041859;28;20200;-67
2021/12/03 03:55:48;;;;;;;7.35;5.97;;;1.80;99.90;;;;;;5041837;28;20225;-67
2021/12/03 03:58:16;;;;;;;5.93;5.43;;;1.80;99.90;;;;;;5042260;28;20278;-68
2021/12/03 04:00:46;;;;;;;6.25;5.70;;;1.80;99.90;;;;;;5047438;28;20214;-67
2021/12/03 04:03:15;;;;;;;7.22;6.05;;;1.80;99.90;;;;;;5049151;28;20240;-69
2021/12/03 04:05:44;;;;;;;6.80;5.93;;;1.90;99.90;;;;;;5050752;28;20198;-69
2021/12/03 04:08:12;;;;;;;7.55;6.05;;;1.90;99.90;;;;;;5048163;28;20230;-67
2021/12/03 04:10:40;;;;;;;7.80;6.13;;;1.90;99.90;;;;;;5044006;28;20289;-67
2021/12/03 04:13:08;;;;;;;8.13;5.25;;;2.00;99.90;;;;;;5043559;28;20297;-67
2021/12/03 04:15:37;;;;;;;5.72;5.18;;;2.00;99.90;;;;;;5043259;28;20888;-68
2021/12/03 04:18:05;;;;;;;7.32;5.68;;;2.00;99.90;;;;;;5043060;28;20202;-68
2021/12/03 04:20:33;;;;;;;7.60;5.53;;;1.90;99.90;;;;;;5041654;28;20282;-68
2021/12/03 04:23:03;;;;;;;7.75;5.25;;;1.80;99.90;;;;;;5041384;28;20234;-68
2021/12/03 04:25:31;;;;;;;5.80;5.20;;;1.90;99.90;;;;;;5041559;28;20297;-68
2021/12/03 04:27:59;;;;;;;13.07;5.63;;;1.90;99.90;;;;;;5041594;28;20231;-68
2021/12/03 04:30:29;;;;;;;6.82;4.82;;;1.80;99.90;;;;;;5041117;28;20292;-68
2021/12/03 04:32:58;;;;;;;7.18;6.10;;;1.70;99.90;;;;;;5041231;28;20302;-67
2021/12/03 04:35:28;;;;;;;7.47;5.53;;;1.70;99.90;;;;;;5040708;28;20314;-67
2021/12/03 04:37:57;;;;;;;6.55;5.20;;;1.70;99.90;;;;;;5040996;28;20206;-67
2021/12/03 04:40:28;;;;;;;5.70;5.20;;;1.70;99.90;;;;;;5040913;28;20241;-66
2021/12/03 04:42:56;;;;;;;5.13;4.57;;;1.70;99.90;;;;;;5040866;28;20290;-66
2021/12/03 04:45:26;;;;;;;5.15;4.40;;;1.80;99.90;;;;;;5041072;28;20228;-68
2021/12/03 04:47:55;;;;;;;5.38;4.85;;;1.80;99.90;;;;;;5041221;28;20302;-69
2021/12/03 04:50:25;;;;;;;4.70;4.20;;;1.90;99.90;;;;;;5041459;28;20314;-68
2021/12/03 04:52:54;;;;;;;6.07;5.05;;;2.00;99.90;;;;;;5045589;28;20222;-68
2021/12/03 04:55:23;;;;;;;9.95;6.05;;;2.00;99.90;;;;;;5056941;28;20720;-67
2021/12/03 04:57:53;;;;;;;6.07;4.70;;;1.90;99.90;;;;;;5043179;28;20855;-68
2021/12/03 05:00:25;;;;;;;6.18;4.95;;;1.90;99.90;;;;;;5040602;28;20250;-70
2021/12/03 05:02:54;;;;;;;6.43;4.63;;;1.80;99.90;;;;;;5040866;28;20261;-68
2021/12/03 05:05:24;;;;;;;5.35;4.88;;;1.80;99.90;;;;;;5040797;28;20211;-67
2021/12/03 05:08:04;;;;;;;7.45;5.07;;;1.90;99.90;;;;;;5041654;28;20696;-66
2021/12/03 05:10:34;;;;;;;6.60;4.82;;;1.90;99.90;;;;;;5041094;28;20379;-66
2021/12/03 05:13:05;;;;;;;4.20;3.90;;;1.90;99.90;;;;;;5040438;28;20284;-66
2021/12/03 05:15:34;;;;;;;5.90;5.32;;;2.00;99.90;;;;;;5040498;28;20230;-67
2021/12/03 05:18:04;;;;;;;6.00;5.03;;;1.90;99.90;;;;;;5040357;28;20812;-66
2021/12/03 05:20:32;;;;;;;6.30;4.80;;;1.80;99.90;;;;;;5040368;28;20822;-68
2021/12/03 05:23:00;;;;;;;5.78;5.22;;;1.80;99.90;;;;;;5040818;28;20285;-69
2021/12/03 05:25:29;;;;;;;5.13;4.47;;;1.80;99.90;;;;;;5040757;28;20226;-69
2021/12/03 05:27:57;;;;;;;6.05;5.10;;;1.80;99.90;;;;;;5040599;28;20198;-67
2021/12/03 05:30:27;;;;;;;9.27;5.60;;;1.90;99.90;;;;;;5039798;28;20245;-68
2021/12/03 05:32:55;;;;;;;6.07;4.38;;;1.90;99.90;;;;;;5040005;28;20233;-64
2021/12/03 05:35:24;;;;;;;7.78;5.10;;;2.00;99.90;;;;;;5040405;28;20199;-67
2021/12/03 05:37:52;;;;;;;5.90;4.75;;;2.10;99.90;;;;;;5040472;28;20252;-66
2021/12/03 05:40:20;;;;;;;7.88;5.72;;;2.10;99.90;;;;;;5040253;28;20214;-66
2021/12/03 05:42:49;;;;;;;6.45;5.47;;;2.10;99.90;;;;;;5040235;28;20273;-66
2021/12/03 05:45:19;;;;;;;11.57;5.70;;;2.10;99.90;;;;;;5040569;28;20871;-66
2021/12/03 05:47:49;;;;;;;13.18;6.38;;;2.00;99.90;;;;;;5040151;28;20705;-66
2021/12/03 05:50:17;;;;;;;5.20;4.70;;;2.00;99.90;;;;;;5040500;28;20464;-66
2021/12/03 05:52:47;;;;;;;5.55;5.05;;;2.00;99.90;;;;;;5040198;28;20312;-66
2021/12/03 05:55:16;;;;;;;7.88;5.63;;;2.00;99.90;;;;;;5041465;28;20365;-66
2021/12/03 05:57:45;;;;;;;12.43;6.10;;;2.00;99.90;;;;;;5041629;28;20314;-66
2021/12/03 06:00:16;;;;;;;7.15;6.15;;;2.10;99.90;;;;;;5052254;28;20275;-67
2021/12/03 06:02:44;;;;;;;6.28;5.68;;;2.20;99.90;;;;;;5063583;28;20225;-64
2021/12/03 06:05:14;;;;;;;6.50;5.78;;;2.20;99.90;;;;;;5044233;28;20953;-63
2021/12/03 06:07:41;;;;;;;5.47;4.97;;;2.30;99.90;;;;;;5039748;28;20225;-65
2021/12/03 06:10:10;;;;;;;6.80;6.00;;;2.20;99.90;;;;;;5039334;28;20248;-65
2021/12/03 06:12:42;;;;;;;6.43;5.82;;;2.30;99.90;;;;;;5039316;28;20247;-64
2021/12/03 06:15:11;;;;;;;10.30;6.50;;;2.30;99.90;;;;;;5038258;28;20318;-64
2021/12/03 06:17:39;;;;;;;7.95;5.35;;;2.20;99.90;;;;;;5043119;28;20280;-65
2021/12/03 06:20:09;;;;;;;8.50;5.38;;;2.20;99.90;;;;;;5040699;28;20665;-66
2021/12/03 06:22:38;;;;;;;10.32;5.97;;;2.20;99.90;;;;;;5040514;28;20260;-69
2021/12/03 06:25:09;;;;;;;7.45;6.07;;;2.20;99.90;;;;;;5039799;28;20927;-63
2021/12/03 06:27:38;;;;;;;6.60;5.55;;;2.20;99.90;;;;;;5040221;28;20233;-65
2021/12/03 06:30:08;;;;;;;5.97;5.38;;;2.20;99.90;;;;;;5039696;28;20312;-64
2021/12/03 06:32:36;;;;;;;9.57;5.40;;;2.10;99.90;;;;;;5039867;28;20248;-65
2021/12/03 06:35:06;;;;;;;6.18;5.57;;;2.10;99.90;;;;;;5039709;28;20248;-65
2021/12/03 06:37:35;;;;;;;7.80;7.03;;;2.00;99.90;;;;;;5038534;28;20259;-64
2021/12/03 06:40:05;;;;;;;7.78;6.20;;;2.10;99.90;;;;;;5038282;28;20230;-64
2021/12/03 06:42:34;;;;;;;8.15;6.60;;;2.00;99.90;;;;;;5039103;28;20700;-64
2021/12/03 06:45:05;;;;;;;6.40;5.80;;;2.00;99.90;;;;;;5039404;28;20274;-65
2021/12/03 06:47:33;;;;;;;11.65;6.43;;;2.10;99.90;;;;;;5039442;28;20229;-64
2021/12/03 06:50:03;;;;;;;8.48;5.60;;;2.00;99.90;;;;;;5039235;28;20222;-64
2021/12/03 06:52:32;;;;;;;6.60;6.00;;;2.00;99.90;;;;;;5041022;28;20289;-65
2021/12/03 06:55:03;;;;;;;6.25;5.43;;;2.00;99.90;;;;;;5041172;28;20684;-67
2021/12/03 06:57:32;;;;;;;11.38;6.90;;;1.90;99.90;;;;;;5040366;28;20304;-65
2021/12/03 07:00:00;;;;;;;8.07;5.80;;;1.90;99.90;;;;;;5040198;28;20249;-67
2021/12/03 07:02:28;;;;;;;6.20;5.60;;;1.90;99.90;;;;;;5040509;28;20293;-66
2021/12/03 07:04:56;;;;;;;6.65;5.90;;;1.90;99.90;;;;;;5040123;28;20202;-66
2021/12/03 07:07:24;;;;;;;8.02;7.22;;;1.90;99.90;;;;;;5039510;28;20204;-64
2021/12/03 07:09:52;;;;;;;7.05;6.45;;;2.00;99.90;;;;;;5038873;28;20221;-65
2021/12/03 07:12:20;;;;;;;8.88;6.18;;;2.00;99.90;;;;;;5038652;28;20233;-65
2021/12/03 07:14:49;;;;;;;10.27;6.00;;;1.90;99.90;;;;;;5038238;28;20226;-67
2021/12/03 07:17:17;;;;;;;8.10;7.30;;;1.90;99.90;;;;;;5038936;28;20316;-64
2021/12/03 07:19:45;;;;;;;7.85;7.07;;;1.80;99.90;;;;;;5039261;28;20464;-64
2021/12/03 07:22:12;;;;;;;10.50;6.85;;;1.80;99.90;;;;;;5040322;28;20691;-71
2021/12/03 07:24:40;;;;;;;12.35;7.55;;;1.90;99.90;;;;;;5061950;28;20190;-69
2021/12/03 07:27:08;;;;;;;8.25;7.30;;;1.90;99.90;;;;;;5051856;28;20419;-69
2021/12/03 07:29:36;;;;;;;14.48;8.20;;;2.00;99.90;;;;;;5039199;28;20279;-71
2021/12/03 07:32:07;;;;;;;8.25;7.20;;;2.20;99.90;;;;;;5039419;28;20368;-71
2021/12/03 07:34:35;;;;;;;10.82;7.40;;;2.20;99.90;;;;;;5038992;28;20197;-71
2021/12/03 07:37:03;;;;;;;8.20;6.47;;;2.10;99.90;;;;;;5038762;28;20286;-77
2021/12/03 07:39:32;;;;;;;8.65;7.75;;;2.00;99.90;;;;;;5039271;28;20375;-74
2021/12/03 07:42:00;;;;;;;11.57;8.27;;;2.00;99.90;;;;;;5038569;28;20244;-68
2021/12/03 07:44:28;;;;;;;9.77;8.77;;;2.00;99.90;;;;;;5038724;28;20840;-69
2021/12/03 07:46:56;;;;;;;13.63;8.70;;;2.00;99.90;;;;;;5038765;28;20202;-66
2021/12/03 07:49:28;;;;;;;12.15;8.80;;;2.00;99.90;;;;;;5038384;28;20302;-67
2021/12/03 07:51:56;;;;;;;8.70;7.57;;;1.90;99.90;;;;;;5038718;28;20238;-67
2021/12/03 07:54:24;;;;;;;8.38;7.25;;;1.70;99.90;;;;;;5038145;28;20949;-65
2021/12/03 07:56:52;;;;;;;7.40;6.68;;;1.60;99.90;;;;;;5039155;28;20461;-66
2021/12/03 07:59:20;;;;;;;9.13;7.80;;;1.60;99.90;;;;;;5037763;28;20328;-67
2021/12/03 08:01:48;;;;;;;8.43;7.53;;;1.50;99.90;;;;;;5038399;28;20708;-66
2021/12/03 08:04:16;;;;;;;10.25;7.20;;;1.40;99.90;;;;;;5038448;28;20216;-66
2021/12/03 08:06:51;;;;;;;9.10;7.60;;;1.30;99.90;;;;;;5038859;28;20193;-66
2021/12/03 08:09:20;;;;;;;9.85;8.88;;;1.30;99.90;;;;;;5038623;28;20912;-65
2021/12/03 08:11:49;;;;;;;8.93;7.80;;;1.30;99.90;;;;;;5039509;28;20205;-65
2021/12/03 08:14:16;;;;;;;10.05;7.70;;;1.30;99.90;;;;;;5038474;28;20301;-66
2021/12/03 08:16:44;;;;;;;9.20;8.05;;;1.30;99.90;;;;;;5038497;28;20293;-66
2021/12/03 08:19:12;;;;;;;12.20;8.65;;;1.20;99.90;;;;;;5039354;28;20605;-66
2021/12/03 08:21:40;;;;;;;8.85;7.95;;;1.20;99.90;;;;;;5042901;28;20293;-67
2021/12/03 08:24:10;;;;;;;8.27;7.55;;;1.20;99.90;;;;;;5047636;28;20267;-73
2021/12/03 08:26:38;;;;;;;13.27;8.60;;;1.20;99.90;;;;;;5059794;28;20285;-66
2021/12/03 08:29:06;;;;;;;9.63;7.88;;;1.20;99.90;;;;;;5054539;28;20264;-67
2021/12/03 08:31:34;;;;;;;10.23;9.27;;;1.30;99.90;;;;;;5043548;28;20205;-66
2021/12/03 08:34:02;;;;;;;9.65;7.88;;;1.30;99.90;;;;;;5046708;28;20224;-65
2021/12/03 08:36:30;;;;;;;9.57;8.27;;;1.30;99.90;;;;;;5052885;28;20747;-66
2021/12/03 08:38:58;;;;;;;15.73;9.30;;;1.30;99.90;;;;;;5054500;28;20245;-64
2021/12/03 08:41:28;;;;;;;8.63;7.80;;;1.30;99.90;;;;;;5048292;28;20657;-64
2021/12/03 08:43:55;;;;;;;9.32;8.32;;;1.30;99.90;;;;;;5042816;28;20680;-65
2021/12/03 08:46:27;;;;;;;10.85;8.45;;;1.30;99.90;;;;;;5042562;28;20923;-66
2021/12/03 08:49:04;;;;;;;10.77;9.63;;;1.30;99.90;;;;;;5042001;28;20362;-64
2021/12/03 08:51:46;;;;;;;10.43;9.43;;;1.40;99.90;;;;;;5041682;28;20718;-66
2021/12/03 08:57:00;;;;;;;20.48;10.35;;;1.30;99.90;;;;;;5041478;28;20672;-64
2021/12/03 08:59:28;;;;;;;13.32;10.02;;;1.40;99.90;;;;;;5041413;28;20261;-65
2021/12/03 09:01:56;;;;;;;14.20;10.07;;;1.30;99.90;;;;;;5041931;28;20248;-65
2021/12/03 09:04:24;;;;;;;12.00;10.65;;;1.40;99.90;;;;;;5040809;28;20245;-65
2021/12/03 09:06:52;;;;;;;13.88;10.63;;;1.40;99.90;;;;;;5041227;28;20280;-65
2021/12/03 09:09:20;;;;;;;18.40;12.07;;;1.40;99.90;;;;;;5041071;28;20317;-65
2021/12/03 09:11:48;;;;;;;19.75;12.63;;;1.50;99.90;;;;;;5041504;28;20229;-65
2021/12/03 09:14:24;;;;;;;20.75;11.45;;;1.50;99.90;;;;;;5041046;28;20826;-65
2021/12/03 09:16:58;;;;;;;15.32;12.20;;;1.60;99.90;;;;;;5040345;28;20221;-64
2021/12/03 09:19:31;;;;;;;12.70;11.40;;;1.60;99.90;;;;;;5040545;28;20213;-65
2021/12/03 09:21:59;;;;;;;16.88;12.90;;;1.60;99.90;;;;;;5041084;28;20229;-65
2021/12/03 09:24:31;;;;;;;14.88;12.57;;;1.70;99.90;;;;;;5040980;28;20657;-64
2021/12/03 09:26:59;;;;;;;29.02;14.25;;;1.70;99.90;;;;;;5040454;28;20301;-65
2021/12/03 09:29:31;;;;;;;19.45;13.63;;;1.70;99.90;;;;;;5040327;28;20732;-65
2021/12/03 09:31:59;;;;;;;17.38;13.75;;;1.80;99.90;;;;;;5041279;28;20202;-65
2021/12/03 09:34:31;;;;;;;16.42;12.90;;;1.80;99.90;;;;;;5041108;28;20890;-65
2021/12/03 09:36:59;;;;;;;23.38;14.48;;;1.80;99.90;;;;;;5040354;28;20290;-65
2021/12/03 09:39:27;;;;;;;19.20;13.05;;;1.90;99.90;;;;;;5040780;28;20794;-63
2021/12/03 09:41:57;;;;;;;16.52;12.63;;;2.00;99.90;;;;;;5040962;28;20208;-65
2021/12/03 09:44:29;;;;;;;24.10;14.50;;;2.10;99.90;;;;;;5041380;28;20226;-64
2021/12/03 09:46:59;;;;;;;23.88;13.90;;;2.10;99.90;;;;;;5040760;28;20240;-64
2021/12/03 09:49:32;;;;;;;20.05;14.55;;;2.20;99.90;;;;;;5041404;28;20776;-65
2021/12/03 09:52:09;;;;;;;18.45;14.45;;;2.30;99.90;;;;;;5041547;28;20666;-64
2021/12/03 09:54:41;;;;;;;20.70;15.52;;;2.40;99.90;;;;;;5052789;28;20208;-70
2021/12/03 09:57:12;;;;;;;17.92;14.10;;;2.50;99.90;;;;;;5054095;28;20198;-64
2021/12/03 10:03:15;;;;;;;18.83;13.10;;;2.50;99.90;;;;;;5038240;28;20210;-63
2021/12/03 10:12:03;;;;;;;19.00;13.82;;;2.50;99.90;;;;;;5037253;28;20214;-65
2021/12/03 10:14:59;;;;;;;21.63;13.98;;;2.60;99.90;;;;;;5038314;28;20209;-65
2021/12/03 10:17:40;;;;;;;22.25;15.25;;;2.60;99.90;;;;;;5039568;28;20289;-63
2021/12/03 10:20:27;;;;;;;24.88;13.50;;;2.70;99.90;;;;;;5037210;28;20603;-65
2021/12/03 10:29:07;;;;;;;21.63;14.45;;;2.80;99.90;;;;;;5037714;28;20297;-62
2021/12/03 10:35:03;;;;;;;21.77;14.70;;;3.00;99.90;;;;;;5037083;28;20214;-64
2021/12/03 10:40:47;;;;;;;20.23;13.85;;;3.20;99.90;;;;;;5038786;28;20326;-63
2021/12/03 10:43:39;;;;;;;22.55;16.58;;;3.20;99.90;;;;;;5038063;28;20454;-63
2021/12/03 10:46:22;;;;;;;22.48;14.35;;;3.20;99.90;;;;;;5036471;28;20679;-63
2021/12/03 10:48:56;;;;;;;24.95;14.23;;;3.30;99.90;;;;;;5037384;28;20220;-71
2021/12/03 10:51:35;;;;;;;22.10;14.35;;;3.30;99.90;;;;;;5042053;28;20227;-70
2021/12/03 10:54:10;;;;;;;22.55;15.65;;;3.60;99.90;;;;;;5059197;28;20295;-69
2021/12/03 10:57:00;;;;;;;20.85;15.82;;;4.00;99.90;;;;;;5044752;28;20455;-68
2021/12/03 10:59:58;;;;;;;23.60;15.68;;;4.30;99.90;;;;;;5036961;28;20256;-66
2021/12/03 11:16:59;;;;;;;23.40;14.68;;;3.80;99.90;;;;;;5035819;28;20855;-67
2021/12/03 11:31:18;;;;;;;27.13;15.38;;;3.60;99.90;;;;;;5038128;28;20195;-67
2021/12/03 11:36:55;;;;;;;29.73;16.25;;;3.60;99.90;;;;;;5037591;28;20279;-67
2021/12/03 11:45:36;;;;;;;29.05;16.05;;;3.60;99.90;;;;;;5038545;28;20292;-66
2021/12/03 12:44:43;;;;;;;38.35;20.58;;;3.60;99.90;;;;;;5043472;28;20204;-68
2021/12/03 13:13:04;;;;;;;34.22;16.63;;;3.70;99.90;;;;;;5041410;28;20230;-66
2021/12/03 13:16:19;;;;;;;32.50;16.13;;;3.70;99.90;;;;;;5042022;28;20229;-67
2021/12/03 13:22:22;;;;;;;35.53;17.65;;;3.70;99.90;;;;;;5038482;28;20810;-66
2021/12/03 14:02:33;;;;;;;32.78;16.58;;;3.80;99.90;;;;;;5039979;28;20203;-68
2021/12/03 14:08:23;;;;;;;28.95;15.20;;;3.90;99.90;;;;;;5017236;28;20195;-69
2021/12/03 14:45:28;;;;;;;33.40;15.07;;;3.50;99.90;;;;;;5023262;28;20204;-69
2021/12/03 14:51:30;;;;;;;31.95;15.23;;;3.40;99.90;;;;;;5136026;27;20518;-66
2021/12/03 14:54:21;;;;;;;23.88;12.73;;;3.50;99.90;;;;;;5123790;27;20256;-68
2021/12/03 14:57:14;;;;;;;28.27;15.80;;;3.50;99.90;;;;;;5115247;28;20194;-66
2021/12/03 15:00:01;;;;;;;22.60;14.55;;;3.40;99.90;;;;;;5094620;28;20742;-67
2021/12/03 15:02:48;;;;;;;28.45;15.10;;;3.40;99.90;;;;;;5105131;28;20192;-65
2021/12/03 15:05:34;;;;;;;25.50;14.60;;;3.40;99.90;;;;;;5115333;27;20544;-67
2021/12/03 15:08:05;;;;;;;26.35;14.55;;;3.40;99.90;;;;;;5118080;27;20342;-67
2021/12/03 15:10:44;;;;;;;31.70;15.38;;;3.40;99.90;;;;;;5126385;27;20570;-66
2021/12/03 15:18:59;;;;;;;35.20;16.73;;;3.40;99.90;;;;;;5113542;27;20222;-67
2021/12/03 15:32:48;;;;;;;20.65;12.38;;;3.30;99.90;;;;;;5115028;27;20191;-67
2021/12/03 15:35:19;;;;;;;25.35;13.55;;;3.20;99.90;;;;;;5114998;28;20266;-67
2021/12/03 15:52:16;;;;;;;14.90;11.40;;;3.10;99.90;;;;;;5114528;28;20272;-66
2021/12/03 16:03:42;;;;;;;13.50;9.93;;;3.10;99.90;;;;;;5103136;28;20212;-67
2021/12/03 16:09:08;;;;;;;14.00;10.40;;;3.10;99.90;;;;;;5071686;28;20464;-65
2021/12/03 16:11:42;;;;;;;11.65;9.25;;;3.10;99.90;;;;;;5098113;28;20284;-65
2021/12/03 16:14:46;;;;;;;14.73;9.85;;;3.00;99.90;;;;;;5101222;28;20203;-65
2021/12/03 16:23:20;;;;;;;13.50;9.35;;;3.00;99.90;;;;;;5099031;28;20283;-64
2021/12/03 16:26:05;;;;;;;12.07;9.38;;;2.90;99.90;;;;;;5099796;28;20201;-65
2021/12/03 16:46:00;;;;;;;11.75;9.63;;;3.00;99.90;;;;;;5098680;28;20220;-64
2021/12/03 16:51:34;;;;;;;9.25;7.97;;;2.90;99.90;;;;;;5100354;28;20302;-64
2021/12/03 16:54:08;;;;;;;12.63;8.48;;;2.90;99.90;;;;;;5098187;28;20180;-64
2021/12/03 16:56:42;;;;;;;12.15;9.20;;;2.90;99.90;;;;;;5108295;28;20613;-65
2021/12/03 16:59:10;;;;;;;13.93;8.77;;;2.90;99.90;;;;;;5107478;27;20280;-64
2021/12/03 17:01:43;;;;;;;11.10;9.13;;;2.90;99.90;;;;;;5094485;28;20222;-65
2021/12/03 17:04:26;;;;;;;10.90;9.40;;;3.00;99.90;;;;;;5091714;28;20193;-64
2021/12/03 17:12:40;;;;;;;10.70;9.20;;;3.00;99.90;;;;;;5101219;28;20207;-67
2021/12/03 17:48:55;;;;;;;10.60;9.52;;;2.90;99.90;;;;;;5093000;28;20291;-65
2021/12/03 17:54:28;;;;;;;11.05;8.20;;;3.00;99.90;;;;;;5118104;27;20651;-66
2021/12/03 17:57:04;;;;;;;14.30;10.63;;;3.00;99.90;;;;;;5117148;28;20183;-66
2021/12/03 17:59:36;;;;;;;11.45;10.02;;;3.00;99.90;;;;;;5117309;27;20529;-66
2021/12/03 18:02:10;;;;;;;13.18;9.30;;;3.00;99.90;;;;;;5117840;27;20673;-66
2021/12/03 18:04:55;;;;;;;14.10;10.13;;;3.00;99.90;;;;;;5118602;27;20835;-65
2021/12/03 18:07:32;;;;;;;12.05;9.68;;;3.00;99.90;;;;;;5107656;28;20198;-65
2021/12/03 18:13:20;;;;;;;13.10;9.43;;;3.10;99.90;;;;;;5113788;27;20690;-66
2021/12/03 18:46:51;;;;;;;14.93;10.70;;;3.40;99.90;;;;;;5102160;28;20265;-74
2021/12/03 18:52:21;;;;;;;14.02;11.30;;;3.70;99.90;;;;;;5057179;28;20280;-71
2021/12/03 18:54:57;;;;;;;12.63;10.85;;;4.10;99.90;;;;;;5102508;28;20797;-78
2021/12/03 18:57:28;;;;;;;16.00;11.40;;;4.10;99.90;;;;;;5100765;28;20196;-72
2021/12/03 19:00:01;;;;;;;12.40;10.38;;;4.00;99.90;;;;;;5091677;28;20222;-75
2021/12/03 19:02:32;;;;;;;15.30;11.43;;;3.90;99.90;;;;;;5090780;28;20249;-71
2021/12/03 19:05:04;;;;;;;12.02;9.10;;;3.80;99.90;;;;;;5092296;28;20200;-69
2021/12/03 19:07:36;;;;;;;10.73;9.35;;;3.90;99.90;;;;;;5090387;28;20203;-70
2021/12/03 19:10:09;;;;;;;11.05;9.85;;;3.80;99.90;;;;;;5091550;28;20248;-68
2021/12/03 19:12:41;;;;;;;12.48;9.95;;;3.80;99.90;;;;;;5090954;28;20231;-68
2021/12/03 19:15:12;;;;;;;14.73;10.05;;;3.80;99.90;;;;;;5090419;28;20202;-68
2021/12/03 19:17:43;;;;;;;16.52;10.95;;;3.80;99.90;;;;;;5091073;28;20191;-68
2021/12/03 19:20:16;;;;;;;12.38;11.10;;;3.70;99.90;;;;;;5091555;28;20242;-70
2021/12/03 19:22:44;;;;;;;14.43;10.75;;;3.70;99.90;;;;;;5089389;28;20256;-70
2021/12/03 19:25:16;;;;;;;13.90;10.90;;;3.80;99.90;;;;;;5091250;27;20670;-71